sensor_id;sensor_type;location;lat;lon;timestamp;pressure;altitude;pressure_sealevel;temperature;humidity
61287;BME280;56412;53.148;8.204;2022-08-19T00:02:21;101377.06;;;20.60;58.98
61287;BME280;56412;53.148;8.204;2022-08-19T00:04:47;101375.00;;;20.54;59.35
61287;BME280;56412;53.148;8.204;2022-08-19T00:07:17;101365.44;;;20.53;59.36
61287;BME280;56412;53.148;8.204;2022-08-19T00:09:42;101374.28;;;20.52;59.32
61287;BME280;56412;53.148;8.204;2022-08-19T00:12:07;101376.38;;;20.58;59.02
61287;BME280;56412;53.148;8.204;2022-08-19T00:14:33;101371.09;;;20.58;59.01
61287;BME280;56412;53.148;8.204;2022-08-19T00:17:00;101372.78;;;20.59;58.77
61287;BME280;56412;53.148;8.204;2022-08-19T00:19:25;101370.16;;;20.59;58.72
61287;BME280;56412;53.148;8.204;2022-08-19T00:21:51;101373.75;;;20.58;58.77
61287;BME280;56412;53.148;8.204;2022-08-19T00:24:17;101367.22;;;20.53;58.83
61287;BME280;56412;53.148;8.204;2022-08-19T00:26:44;101363.88;;;20.51;58.87
61287;BME280;56412;53.148;8.204;2022-08-19T00:29:10;101368.72;;;20.46;59.20
61287;BME280;56412;53.148;8.204;2022-08-19T00:31:37;101359.31;;;20.43;59.25
61287;BME280;56412;53.148;8.204;2022-08-19T00:34:02;101357.66;;;20.42;59.21
61287;BME280;56412;53.148;8.204;2022-08-19T00:36:29;101361.22;;;20.41;59.36
61287;BME280;56412;53.148;8.204;2022-08-19T00:38:54;101358.75;;;20.39;59.21
61287;BME280;56412;53.148;8.204;2022-08-19T00:41:20;101361.50;;;20.38;58.94
61287;BME280;56412;53.148;8.204;2022-08-19T00:46:47;101360.13;;;20.34;59.04
61287;BME280;56412;53.148;8.204;2022-08-19T00:49:15;101369.13;;;20.31;59.27
61287;BME280;56412;53.148;8.204;2022-08-19T00:51:45;101365.94;;;20.28;59.41
61287;BME280;56412;53.148;8.204;2022-08-19T00:54:14;101364.00;;;20.30;59.37
61287;BME280;56412;53.148;8.204;2022-08-19T00:56:39;101370.22;;;20.29;59.16
61287;BME280;56412;53.148;8.204;2022-08-19T00:59:05;101371.19;;;20.28;58.97
61287;BME280;56412;53.148;8.204;2022-08-19T01:01:37;101366.91;;;20.27;59.16
61287;BME280;56412;53.148;8.204;2022-08-19T01:04:04;101365.22;;;20.26;59.06
61287;BME280;56412;53.148;8.204;2022-08-19T01:06:30;101369.81;;;20.24;58.94
61287;BME280;56412;53.148;8.204;2022-08-19T01:08:57;101363.16;;;20.19;59.22
61287;BME280;56412;53.148;8.204;2022-08-19T01:11:23;101369.09;;;20.12;59.34
61287;BME280;56412;53.148;8.204;2022-08-19T01:13:49;101368.78;;;20.05;59.74
61287;BME280;56412;53.148;8.204;2022-08-19T01:16:17;101378.63;;;20.03;59.83
61287;BME280;56412;53.148;8.204;2022-08-19T01:18:45;101373.75;;;19.99;60.20
61287;BME280;56412;53.148;8.204;2022-08-19T01:21:28;101375.28;;;20.01;59.97
61287;BME280;56412;53.148;8.204;2022-08-19T01:23:59;101358.94;;;19.98;60.07
61287;BME280;56412;53.148;8.204;2022-08-19T01:26:24;101352.84;;;19.97;59.97
61287;BME280;56412;53.148;8.204;2022-08-19T01:28:52;101353.81;;;19.96;59.88
61287;BME280;56412;53.148;8.204;2022-08-19T01:31:21;101354.78;;;19.95;59.88
61287;BME280;56412;53.148;8.204;2022-08-19T01:33:49;101356.72;;;19.93;59.78
61287;BME280;56412;53.148;8.204;2022-08-19T01:36:24;101352.56;;;19.90;59.65
61287;BME280;56412;53.148;8.204;2022-08-19T01:38:53;101349.25;;;19.88;59.62
61287;BME280;56412;53.148;8.204;2022-08-19T01:41:19;101350.34;;;19.86;59.51
61287;BME280;56412;53.148;8.204;2022-08-19T01:43:44;101343.53;;;19.83;59.44
61287;BME280;56412;53.148;8.204;2022-08-19T01:46:10;101337.59;;;19.81;59.52
61287;BME280;56412;53.148;8.204;2022-08-19T01:48:37;101334.25;;;19.79;59.84
61287;BME280;56412;53.148;8.204;2022-08-19T01:51:05;101325.69;;;19.77;59.50
61287;BME280;56412;53.148;8.204;2022-08-19T01:53:31;101330.13;;;19.77;59.70
61287;BME280;56412;53.148;8.204;2022-08-19T01:55:57;101340.63;;;19.77;59.50
61287;BME280;56412;53.148;8.204;2022-08-19T01:58:24;101333.13;;;19.72;59.31
61287;BME280;56412;53.148;8.204;2022-08-19T02:00:55;101328.97;;;19.69;59.32
61287;BME280;56412;53.148;8.204;2022-08-19T02:03:21;101321.22;;;19.68;59.28
61287;BME280;56412;53.148;8.204;2022-08-19T02:05:46;101320.59;;;19.64;59.30
61287;BME280;56412;53.148;8.204;2022-08-19T02:08:12;101303.44;;;19.60;59.53
61287;BME280;56412;53.148;8.204;2022-08-19T02:10:38;101299.13;;;19.49;59.76
61287;BME280;56412;53.148;8.204;2022-08-19T02:13:06;101301.81;;;19.38;60.07
61287;BME280;56412;53.148;8.204;2022-08-19T02:15:31;101298.91;;;19.32;60.31
61287;BME280;56412;53.148;8.204;2022-08-19T02:17:57;101300.59;;;19.33;60.48
61287;BME280;56412;53.148;8.204;2022-08-19T02:20:23;101299.72;;;19.32;60.53
61287;BME280;56412;53.148;8.204;2022-08-19T02:22:48;101302.31;;;19.22;60.98
61287;BME280;56412;53.148;8.204;2022-08-19T02:25:14;101306.22;;;19.28;60.39
61287;BME280;56412;53.148;8.204;2022-08-19T02:27:40;101310.50;;;19.29;60.50
61287;BME280;56412;53.148;8.204;2022-08-19T02:30:07;101309.22;;;19.23;60.54
61287;BME280;56412;53.148;8.204;2022-08-19T02:32:35;101301.31;;;19.14;60.94
61287;BME280;56412;53.148;8.204;2022-08-19T02:35:00;101302.66;;;19.08;61.15
61287;BME280;56412;53.148;8.204;2022-08-19T02:37:26;101300.34;;;19.15;60.82
61287;BME280;56412;53.148;8.204;2022-08-19T02:40:18;101309.91;;;19.16;60.40
61287;BME280;56412;53.148;8.204;2022-08-19T02:42:44;101305.47;;;19.16;60.40
61287;BME280;56412;53.148;8.204;2022-08-19T02:45:10;101311.28;;;19.20;60.22
61287;BME280;56412;53.148;8.204;2022-08-19T02:47:36;101318.06;;;19.22;60.17
61287;BME280;56412;53.148;8.204;2022-08-19T02:50:02;101305.66;;;19.24;59.97
61287;BME280;56412;53.148;8.204;2022-08-19T02:52:28;101319.38;;;19.07;60.52
61287;BME280;56412;53.148;8.204;2022-08-19T02:54:53;101323.09;;;19.04;60.45
61287;BME280;56412;53.148;8.204;2022-08-19T02:57:22;101317.00;;;19.04;60.61
61287;BME280;56412;53.148;8.204;2022-08-19T02:59:48;101312.53;;;18.95;60.70
61287;BME280;56412;53.148;8.204;2022-08-19T03:02:13;101306.84;;;18.90;60.39
61287;BME280;56412;53.148;8.204;2022-08-19T03:04:38;101305.28;;;18.87;61.00
61287;BME280;56412;53.148;8.204;2022-08-19T03:07:04;101302.13;;;18.72;61.01
61287;BME280;56412;53.148;8.204;2022-08-19T03:09:29;101301.13;;;18.84;60.95
61287;BME280;56412;53.148;8.204;2022-08-19T03:11:55;101304.72;;;18.83;61.08
61287;BME280;56412;53.148;8.204;2022-08-19T03:14:20;101313.31;;;18.86;61.00
61287;BME280;56412;53.148;8.204;2022-08-19T03:16:50;101315.69;;;18.89;60.63
61287;BME280;56412;53.148;8.204;2022-08-19T03:19:17;101316.63;;;18.88;60.80
61287;BME280;56412;53.148;8.204;2022-08-19T03:21:45;101320.03;;;18.67;61.34
61287;BME280;56412;53.148;8.204;2022-08-19T03:24:11;101321.66;;;18.79;60.74
61287;BME280;56412;53.148;8.204;2022-08-19T03:26:39;101313.09;;;18.77;60.67
61287;BME280;56412;53.148;8.204;2022-08-19T03:29:06;101312.47;;;18.53;61.65
61287;BME280;56412;53.148;8.204;2022-08-19T03:31:33;101310.41;;;18.35;62.37
61287;BME280;56412;53.148;8.204;2022-08-19T03:33:59;101311.31;;;18.46;62.22
61287;BME280;56412;53.148;8.204;2022-08-19T03:36:25;101308.13;;;18.63;61.37
61287;BME280;56412;53.148;8.204;2022-08-19T03:38:54;101314.78;;;18.67;60.96
61287;BME280;56412;53.148;8.204;2022-08-19T03:41:23;101316.47;;;18.68;60.58
61287;BME280;56412;53.148;8.204;2022-08-19T03:43:52;101317.66;;;18.64;60.69
61287;BME280;56412;53.148;8.204;2022-08-19T03:46:20;101318.88;;;18.60;60.63
61287;BME280;56412;53.148;8.204;2022-08-19T03:48:47;101321.88;;;18.55;60.76
61287;BME280;56412;53.148;8.204;2022-08-19T03:51:19;101307.41;;;18.40;61.21
61287;BME280;56412;53.148;8.204;2022-08-19T03:53:46;101304.66;;;18.42;61.02
61287;BME280;56412;53.148;8.204;2022-08-19T03:56:12;101309.69;;;18.33;60.99
61287;BME280;56412;53.148;8.204;2022-08-19T03:58:39;101305.84;;;18.37;60.94
61287;BME280;56412;53.148;8.204;2022-08-19T04:01:09;101308.47;;;18.37;60.87
61287;BME280;56412;53.148;8.204;2022-08-19T04:03:36;101314.75;;;18.14;61.73
61287;BME280;56412;53.148;8.204;2022-08-19T04:06:09;101315.78;;;18.23;61.30
61287;BME280;56412;53.148;8.204;2022-08-19T04:08:40;101316.84;;;18.31;61.02
61287;BME280;56412;53.148;8.204;2022-08-19T04:11:07;101314.53;;;18.38;60.60
61287;BME280;56412;53.148;8.204;2022-08-19T04:13:34;101309.28;;;18.38;60.20
61287;BME280;56412;53.148;8.204;2022-08-19T04:16:00;101309.44;;;18.36;60.26
61287;BME280;56412;53.148;8.204;2022-08-19T04:18:25;101316.22;;;18.39;60.27
61287;BME280;56412;53.148;8.204;2022-08-19T04:20:50;101316.91;;;18.41;60.15
61287;BME280;56412;53.148;8.204;2022-08-19T04:23:16;101317.78;;;18.42;60.02
61287;BME280;56412;53.148;8.204;2022-08-19T04:25:42;101316.81;;;18.43;60.02
61287;BME280;56412;53.148;8.204;2022-08-19T04:28:10;101319.91;;;18.48;60.10
61287;BME280;56412;53.148;8.204;2022-08-19T04:30:41;101319.75;;;18.49;59.89
61287;BME280;56412;53.148;8.204;2022-08-19T04:33:09;101335.63;;;18.48;60.47
61287;BME280;56412;53.148;8.204;2022-08-19T04:35:39;101328.69;;;18.47;60.37
61287;BME280;56412;53.148;8.204;2022-08-19T04:38:07;101330.19;;;18.28;60.64
61287;BME280;56412;53.148;8.204;2022-08-19T04:40:33;101337.31;;;18.37;61.05
61287;BME280;56412;53.148;8.204;2022-08-19T04:43:22;101340.06;;;18.47;60.36
61287;BME280;56412;53.148;8.204;2022-08-19T04:45:48;101335.13;;;18.54;60.39
61287;BME280;56412;53.148;8.204;2022-08-19T04:48:13;101337.97;;;18.62;60.39
61287;BME280;56412;53.148;8.204;2022-08-19T04:50:43;101336.97;;;18.74;60.07
61287;BME280;56412;53.148;8.204;2022-08-19T04:53:09;101328.84;;;18.77;59.87
61287;BME280;56412;53.148;8.204;2022-08-19T04:55:38;101332.88;;;18.81;59.79
61287;BME280;56412;53.148;8.204;2022-08-19T04:58:04;101333.44;;;18.85;59.69
61287;BME280;56412;53.148;8.204;2022-08-19T05:00:29;101349.91;;;18.87;59.73
61287;BME280;56412;53.148;8.204;2022-08-19T05:02:55;101352.53;;;18.87;59.83
61287;BME280;56412;53.148;8.204;2022-08-19T05:05:20;101346.22;;;18.90;59.85
61287;BME280;56412;53.148;8.204;2022-08-19T05:07:46;101357.84;;;18.97;59.83
61287;BME280;56412;53.148;8.204;2022-08-19T05:10:12;101363.31;;;19.05;59.78
61287;BME280;56412;53.148;8.204;2022-08-19T05:12:37;101361.84;;;19.12;59.64
61287;BME280;56412;53.148;8.204;2022-08-19T05:15:03;101364.31;;;19.14;59.76
61287;BME280;56412;53.148;8.204;2022-08-19T05:17:30;101356.34;;;19.15;59.72
61287;BME280;56412;53.148;8.204;2022-08-19T05:19:56;101360.56;;;19.06;59.98
61287;BME280;56412;53.148;8.204;2022-08-19T05:22:43;101353.25;;;19.10;60.14
61287;BME280;56412;53.148;8.204;2022-08-19T05:25:12;101362.09;;;19.30;59.77
61287;BME280;56412;53.148;8.204;2022-08-19T05:27:41;101364.31;;;19.35;59.49
61287;BME280;56412;53.148;8.204;2022-08-19T05:30:07;101357.44;;;19.13;60.44
61287;BME280;56412;53.148;8.204;2022-08-19T05:32:34;101362.66;;;19.34;59.94
61287;BME280;56412;53.148;8.204;2022-08-19T05:34:59;101347.78;;;19.23;60.21
61287;BME280;56412;53.148;8.204;2022-08-19T05:37:25;101347.09;;;19.42;59.85
61287;BME280;56412;53.148;8.204;2022-08-19T05:39:52;101343.94;;;19.48;59.90
61287;BME280;56412;53.148;8.204;2022-08-19T05:42:19;101348.81;;;19.32;60.56
61287;BME280;56412;53.148;8.204;2022-08-19T05:44:45;101343.78;;;19.49;60.33
61287;BME280;56412;53.148;8.204;2022-08-19T05:47:12;101337.88;;;19.57;60.18
61287;BME280;56412;53.148;8.204;2022-08-19T05:49:39;101337.69;;;19.70;60.24
61287;BME280;56412;53.148;8.204;2022-08-19T05:52:06;101330.31;;;19.94;59.61
61287;BME280;56412;53.148;8.204;2022-08-19T05:54:36;101332.56;;;20.18;59.04
61287;BME280;56412;53.148;8.204;2022-08-19T05:57:06;101337.16;;;20.36;58.81
61287;BME280;56412;53.148;8.204;2022-08-19T05:59:32;101332.75;;;20.66;58.03
61287;BME280;56412;53.148;8.204;2022-08-19T06:01:59;101328.06;;;20.59;57.84
61287;BME280;56412;53.148;8.204;2022-08-19T06:04:25;101327.34;;;20.77;57.39
61287;BME280;56412;53.148;8.204;2022-08-19T06:06:51;101326.88;;;20.91;57.32
61287;BME280;56412;53.148;8.204;2022-08-19T06:09:18;101328.91;;;21.17;56.91
61287;BME280;56412;53.148;8.204;2022-08-19T06:11:49;101319.56;;;21.32;56.59
61287;BME280;56412;53.148;8.204;2022-08-19T06:14:20;101324.72;;;21.43;56.36
61287;BME280;56412;53.148;8.204;2022-08-19T06:16:49;101323.81;;;21.05;56.59
61287;BME280;56412;53.148;8.204;2022-08-19T06:19:17;101317.97;;;21.12;56.92
61287;BME280;56412;53.148;8.204;2022-08-19T06:21:45;101318.47;;;21.44;56.34
61287;BME280;56412;53.148;8.204;2022-08-19T06:24:13;101318.31;;;21.46;56.00
61287;BME280;56412;53.148;8.204;2022-08-19T06:26:41;101329.09;;;21.52;55.74
61287;BME280;56412;53.148;8.204;2022-08-19T06:29:09;101327.75;;;21.48;55.64
61287;BME280;56412;53.148;8.204;2022-08-19T06:31:36;101338.66;;;21.63;55.20
61287;BME280;56412;53.148;8.204;2022-08-19T06:34:05;101333.84;;;21.76;55.34
61287;BME280;56412;53.148;8.204;2022-08-19T06:36:35;101337.97;;;21.89;54.64
61287;BME280;56412;53.148;8.204;2022-08-19T06:39:04;101335.38;;;21.79;54.89
61287;BME280;56412;53.148;8.204;2022-08-19T06:41:34;101337.09;;;21.98;54.44
61287;BME280;56412;53.148;8.204;2022-08-19T06:44:01;101337.69;;;22.10;54.07
61287;BME280;56412;53.148;8.204;2022-08-19T06:46:26;101338.66;;;22.09;54.24
61287;BME280;56412;53.148;8.204;2022-08-19T06:48:52;101333.91;;;22.22;53.92
61287;BME280;56412;53.148;8.204;2022-08-19T06:51:19;101340.47;;;22.18;53.83
61287;BME280;56412;53.148;8.204;2022-08-19T06:53:48;101338.91;;;21.97;54.64
61287;BME280;56412;53.148;8.204;2022-08-19T06:56:21;101348.13;;;21.46;55.53
61287;BME280;56412;53.148;8.204;2022-08-19T06:58:50;101347.03;;;22.04;54.35
61287;BME280;56412;53.148;8.204;2022-08-19T07:01:18;101344.88;;;22.17;53.97
61287;BME280;56412;53.148;8.204;2022-08-19T07:03:44;101341.00;;;22.39;53.30
61287;BME280;56412;53.148;8.204;2022-08-19T07:06:12;101349.44;;;22.61;52.50
61287;BME280;56412;53.148;8.204;2022-08-19T07:08:40;101347.34;;;22.01;53.95
61287;BME280;56412;53.148;8.204;2022-08-19T07:11:08;101352.31;;;22.04;53.44
61287;BME280;56412;53.148;8.204;2022-08-19T07:13:35;101354.09;;;22.31;52.89
61287;BME280;56412;53.148;8.204;2022-08-19T07:16:08;101350.56;;;22.40;53.30
61287;BME280;56412;53.148;8.204;2022-08-19T07:18:36;101353.28;;;22.66;52.39
61287;BME280;56412;53.148;8.204;2022-08-19T07:21:13;101355.25;;;22.01;53.44
61287;BME280;56412;53.148;8.204;2022-08-19T07:23:47;101356.75;;;22.67;52.67
61287;BME280;56412;53.148;8.204;2022-08-19T07:26:21;101362.06;;;23.11;52.02
61287;BME280;56412;53.148;8.204;2022-08-19T07:28:52;101366.78;;;23.25;51.10
61287;BME280;56412;53.148;8.204;2022-08-19T07:31:19;101366.22;;;23.40;51.15
61287;BME280;56412;53.148;8.204;2022-08-19T07:33:46;101361.66;;;23.58;50.93
61287;BME280;56412;53.148;8.204;2022-08-19T07:36:14;101368.50;;;23.34;50.79
61287;BME280;56412;53.148;8.204;2022-08-19T07:38:43;101371.59;;;23.56;50.41
61287;BME280;56412;53.148;8.204;2022-08-19T07:41:11;101372.41;;;23.83;49.93
61287;BME280;56412;53.148;8.204;2022-08-19T07:43:38;101381.69;;;23.87;49.90
61287;BME280;56412;53.148;8.204;2022-08-19T07:46:04;101383.25;;;24.14;49.41
61287;BME280;56412;53.148;8.204;2022-08-19T07:48:31;101380.38;;;23.30;50.08
61287;BME280;56412;53.148;8.204;2022-08-19T07:50:57;101386.06;;;23.70;49.75
61287;BME280;56412;53.148;8.204;2022-08-19T07:53:26;101389.94;;;23.31;50.47
61287;BME280;56412;53.148;8.204;2022-08-19T07:55:53;101384.34;;;23.61;49.58
61287;BME280;56412;53.148;8.204;2022-08-19T07:58:20;101396.75;;;23.94;48.84
61287;BME280;56412;53.148;8.204;2022-08-19T08:00:48;101406.13;;;23.54;48.74
61287;BME280;56412;53.148;8.204;2022-08-19T08:03:16;101402.19;;;22.88;50.58
61287;BME280;56412;53.148;8.204;2022-08-19T08:05:43;101402.59;;;23.46;49.59
61287;BME280;56412;53.148;8.204;2022-08-19T08:08:27;101401.34;;;23.58;48.82
61287;BME280;56412;53.148;8.204;2022-08-19T08:11:12;101398.25;;;23.63;49.03
61287;BME280;56412;53.148;8.204;2022-08-19T08:13:38;101402.56;;;23.98;48.33
61287;BME280;56412;53.148;8.204;2022-08-19T08:16:06;101403.06;;;24.01;47.93
61287;BME280;56412;53.148;8.204;2022-08-19T08:18:31;101406.09;;;24.23;48.08
61287;BME280;56412;53.148;8.204;2022-08-19T08:20:58;101409.09;;;24.28;47.82
61287;BME280;56412;53.148;8.204;2022-08-19T08:23:24;101413.47;;;24.03;47.56
61287;BME280;56412;53.148;8.204;2022-08-19T08:25:54;101412.59;;;23.60;48.68
61287;BME280;56412;53.148;8.204;2022-08-19T08:28:21;101421.22;;;23.96;48.29
61287;BME280;56412;53.148;8.204;2022-08-19T08:30:47;101420.81;;;24.09;47.77
61287;BME280;56412;53.148;8.204;2022-08-19T08:33:14;101429.47;;;24.28;47.57
61287;BME280;56412;53.148;8.204;2022-08-19T08:35:42;101430.50;;;24.43;47.55
61287;BME280;56412;53.148;8.204;2022-08-19T08:38:07;101427.25;;;24.07;48.09
61287;BME280;56412;53.148;8.204;2022-08-19T08:40:47;101425.22;;;24.43;47.51
61287;BME280;56412;53.148;8.204;2022-08-19T08:46:04;101433.44;;;25.15;46.77
61287;BME280;56412;53.148;8.204;2022-08-19T08:48:51;101427.75;;;25.43;45.66
61287;BME280;56412;53.148;8.204;2022-08-19T08:51:20;101428.56;;;25.51;45.69
61287;BME280;56412;53.148;8.204;2022-08-19T08:53:57;101425.47;;;25.79;45.20
61287;BME280;56412;53.148;8.204;2022-08-19T08:56:24;101429.41;;;25.99;44.61
61287;BME280;56412;53.148;8.204;2022-08-19T08:59:00;101426.72;;;26.08;44.55
61287;BME280;56412;53.148;8.204;2022-08-19T09:01:33;101425.22;;;26.13;44.28
61287;BME280;56412;53.148;8.204;2022-08-19T09:03:59;101419.59;;;26.08;44.13
61287;BME280;56412;53.148;8.204;2022-08-19T09:06:28;101427.75;;;26.07;44.50
61287;BME280;56412;53.148;8.204;2022-08-19T09:17:19;101427.91;;;26.05;43.17
61287;BME280;56412;53.148;8.204;2022-08-19T09:22:40;101417.72;;;25.77;44.35
61287;BME280;56412;53.148;8.204;2022-08-19T09:25:11;101404.06;;;26.28;42.71
61287;BME280;56412;53.148;8.204;2022-08-19T09:27:41;101411.63;;;26.39;42.41
61287;BME280;56412;53.148;8.204;2022-08-19T09:30:08;101414.94;;;26.87;42.27
61287;BME280;56412;53.148;8.204;2022-08-19T09:32:38;101410.47;;;27.26;41.65
61287;BME280;56412;53.148;8.204;2022-08-19T09:35:06;101411.22;;;27.49;41.38
61287;BME280;56412;53.148;8.204;2022-08-19T09:37:32;101409.28;;;27.73;41.71
61287;BME280;56412;53.148;8.204;2022-08-19T09:39:58;101415.94;;;27.92;40.85
61287;BME280;56412;53.148;8.204;2022-08-19T09:42:23;101400.78;;;27.77;40.51
61287;BME280;56412;53.148;8.204;2022-08-19T09:44:48;101406.56;;;27.51;40.77
61287;BME280;56412;53.148;8.204;2022-08-19T09:47:13;101403.44;;;27.48;41.02
61287;BME280;56412;53.148;8.204;2022-08-19T09:49:40;101413.06;;;27.49;40.82
61287;BME280;56412;53.148;8.204;2022-08-19T09:52:06;101403.53;;;27.54;40.50
61287;BME280;56412;53.148;8.204;2022-08-19T09:54:34;101400.94;;;27.61;40.22
61287;BME280;56412;53.148;8.204;2022-08-19T09:56:59;101400.50;;;27.72;40.71
61287;BME280;56412;53.148;8.204;2022-08-19T09:59:26;101401.25;;;27.81;39.76
61287;BME280;56412;53.148;8.204;2022-08-19T10:01:52;101400.22;;;27.67;39.16
61287;BME280;56412;53.148;8.204;2022-08-19T10:04:17;101398.03;;;27.85;40.27
61287;BME280;56412;53.148;8.204;2022-08-19T10:06:43;101397.38;;;27.98;39.63
61287;BME280;56412;53.148;8.204;2022-08-19T10:09:09;101403.38;;;27.85;38.63
61287;BME280;56412;53.148;8.204;2022-08-19T10:11:36;101401.97;;;27.90;38.71
61287;BME280;56412;53.148;8.204;2022-08-19T10:14:04;101399.47;;;27.88;38.48
61287;BME280;56412;53.148;8.204;2022-08-19T10:16:33;101397.47;;;27.75;37.63
61287;BME280;56412;53.148;8.204;2022-08-19T10:19:00;101399.22;;;27.01;38.96
61287;BME280;56412;53.148;8.204;2022-08-19T10:21:27;101396.41;;;26.79;38.71
61287;BME280;56412;53.148;8.204;2022-08-19T10:23:56;101389.19;;;27.26;38.29
61287;BME280;56412;53.148;8.204;2022-08-19T10:26:24;101380.22;;;27.27;39.04
61287;BME280;56412;53.148;8.204;2022-08-19T10:28:52;101384.50;;;27.13;37.07
61287;BME280;56412;53.148;8.204;2022-08-19T10:31:18;101400.91;;;26.56;37.87
61287;BME280;56412;53.148;8.204;2022-08-19T10:33:47;101395.91;;;27.51;38.08
61287;BME280;56412;53.148;8.204;2022-08-19T10:36:16;101396.78;;;28.03;36.18
61287;BME280;56412;53.148;8.204;2022-08-19T10:38:44;101398.03;;;28.22;36.03
61287;BME280;56412;53.148;8.204;2022-08-19T10:41:19;101391.63;;;28.38;34.81
61287;BME280;56412;53.148;8.204;2022-08-19T10:43:49;101383.19;;;29.61;33.69
61287;BME280;56412;53.148;8.204;2022-08-19T10:46:17;101376.25;;;31.28;29.70
61287;BME280;56412;53.148;8.204;2022-08-19T10:48:43;101370.81;;;32.95;27.97
61287;BME280;56412;53.148;8.204;2022-08-19T10:51:09;101361.31;;;34.33;27.54
61287;BME280;56412;53.148;8.204;2022-08-19T10:53:55;101370.84;;;35.99;25.40
61287;BME280;56412;53.148;8.204;2022-08-19T10:56:21;101364.47;;;36.67;23.92
61287;BME280;56412;53.148;8.204;2022-08-19T10:59:06;101363.81;;;37.16;22.79
61287;BME280;56412;53.148;8.204;2022-08-19T11:01:32;101357.34;;;36.27;22.79
61287;BME280;56412;53.148;8.204;2022-08-19T11:03:59;101371.38;;;34.49;25.35
61287;BME280;56412;53.148;8.204;2022-08-19T11:06:25;101363.13;;;33.90;25.83
61287;BME280;56412;53.148;8.204;2022-08-19T11:08:52;101364.66;;;33.50;26.49
61287;BME280;56412;53.148;8.204;2022-08-19T11:11:19;101359.94;;;34.12;26.11
61287;BME280;56412;53.148;8.204;2022-08-19T11:13:45;101368.19;;;34.41;25.64
61287;BME280;56412;53.148;8.204;2022-08-19T11:16:14;101369.81;;;35.88;24.28
61287;BME280;56412;53.148;8.204;2022-08-19T11:18:43;101370.25;;;36.93;23.79
61287;BME280;56412;53.148;8.204;2022-08-19T11:21:15;101364.22;;;37.68;21.51
61287;BME280;56412;53.148;8.204;2022-08-19T11:23:44;101362.91;;;35.52;23.07
61287;BME280;56412;53.148;8.204;2022-08-19T11:26:10;101359.47;;;35.28;23.59
61287;BME280;56412;53.148;8.204;2022-08-19T11:28:35;101360.25;;;34.34;24.91
61287;BME280;56412;53.148;8.204;2022-08-19T11:31:01;101356.94;;;33.60;26.33
61287;BME280;56412;53.148;8.204;2022-08-19T11:33:28;101361.78;;;35.47;24.61
61287;BME280;56412;53.148;8.204;2022-08-19T11:35:56;101358.06;;;35.77;22.29
61287;BME280;56412;53.148;8.204;2022-08-19T11:38:22;101351.47;;;34.50;25.38
61287;BME280;56412;53.148;8.204;2022-08-19T11:40:53;101356.91;;;34.62;25.50
61287;BME280;56412;53.148;8.204;2022-08-19T11:43:28;101357.00;;;33.53;25.81
61287;BME280;56412;53.148;8.204;2022-08-19T11:45:55;101360.34;;;33.97;26.92
61287;BME280;56412;53.148;8.204;2022-08-19T11:48:21;101361.84;;;34.65;25.46
61287;BME280;56412;53.148;8.204;2022-08-19T11:50:48;101346.47;;;35.36;24.67
61287;BME280;56412;53.148;8.204;2022-08-19T11:53:14;101364.28;;;35.14;24.73
61287;BME280;56412;53.148;8.204;2022-08-19T11:55:40;101358.56;;;33.91;26.38
61287;BME280;56412;53.148;8.204;2022-08-19T11:58:05;101370.94;;;33.43;26.22
61287;BME280;56412;53.148;8.204;2022-08-19T12:00:32;101371.69;;;33.32;27.79
61287;BME280;56412;53.148;8.204;2022-08-19T12:03:00;101365.22;;;33.58;26.64
61287;BME280;56412;53.148;8.204;2022-08-19T12:05:25;101367.63;;;34.50;26.96
61287;BME280;56412;53.148;8.204;2022-08-19T12:07:50;101356.09;;;34.62;25.32
61287;BME280;56412;53.148;8.204;2022-08-19T12:10:16;101359.13;;;35.24;24.91
61287;BME280;56412;53.148;8.204;2022-08-19T12:12:41;101356.78;;;35.97;23.35
61287;BME280;56412;53.148;8.204;2022-08-19T12:15:08;101359.69;;;35.78;23.92
61287;BME280;56412;53.148;8.204;2022-08-19T12:17:35;101358.81;;;35.61;23.25
61287;BME280;56412;53.148;8.204;2022-08-19T12:20:01;101353.78;;;35.53;23.45
61287;BME280;56412;53.148;8.204;2022-08-19T12:22:26;101355.00;;;36.02;22.46
61287;BME280;56412;53.148;8.204;2022-08-19T12:24:53;101354.38;;;36.29;22.53
61287;BME280;56412;53.148;8.204;2022-08-19T12:27:19;101349.44;;;37.81;19.89
61287;BME280;56412;53.148;8.204;2022-08-19T12:29:45;101339.88;;;37.95;20.74
61287;BME280;56412;53.148;8.204;2022-08-19T12:32:11;101340.16;;;36.50;21.25
61287;BME280;56412;53.148;8.204;2022-08-19T12:34:36;101339.31;;;35.99;22.81
61287;BME280;56412;53.148;8.204;2022-08-19T12:37:03;101342.41;;;34.75;23.61
61287;BME280;56412;53.148;8.204;2022-08-19T12:39:33;101341.47;;;34.81;23.37
61287;BME280;56412;53.148;8.204;2022-08-19T12:41:59;101337.09;;;35.96;22.70
61287;BME280;56412;53.148;8.204;2022-08-19T12:44:25;101334.59;;;38.43;20.92
61287;BME280;56412;53.148;8.204;2022-08-19T12:46:50;101327.34;;;38.96;18.90
61287;BME280;56412;53.148;8.204;2022-08-19T12:49:16;101334.38;;;38.50;19.88
61287;BME280;56412;53.148;8.204;2022-08-19T12:51:41;101324.28;;;39.50;18.40
61287;BME280;56412;53.148;8.204;2022-08-19T12:54:07;101330.09;;;39.90;17.62
61287;BME280;56412;53.148;8.204;2022-08-19T12:56:32;101325.19;;;38.98;19.45
61287;BME280;56412;53.148;8.204;2022-08-19T12:59:00;101333.63;;;39.95;18.59
61287;BME280;56412;53.148;8.204;2022-08-19T13:01:27;101323.25;;;40.59;18.44
61287;BME280;56412;53.148;8.204;2022-08-19T13:03:55;101334.50;;;38.33;19.98
61287;BME280;56412;53.148;8.204;2022-08-19T13:06:20;101332.47;;;37.37;21.96
61287;BME280;56412;53.148;8.204;2022-08-19T13:08:46;101331.38;;;36.77;21.97
61287;BME280;56412;53.148;8.204;2022-08-19T13:11:13;101332.31;;;36.15;22.94